createdAt,value
2023-01-29T00:01:17.346Z,81.68
2023-01-29T00:03:52.639Z,81.87
2023-01-29T00:06:28.232Z,81.73
2023-01-29T00:09:02.734Z,81.90
2023-01-29T00:11:36.906Z,81.93
2023-01-29T00:14:11.324Z,81.80
2023-01-29T00:16:45.542Z,81.92
2023-01-29T00:19:20.657Z,82.13
2023-01-29T00:21:56.300Z,83.02
2023-01-29T00:24:30.971Z,82.02
2023-01-29T00:27:06.375Z,82.57
2023-01-29T00:29:41.815Z,82.22
2023-01-29T00:32:16.195Z,81.30
2023-01-29T00:34:50.768Z,81.66
2023-01-29T00:37:26.439Z,82.54
2023-01-29T00:40:00.988Z,81.31
2023-01-29T00:42:52.939Z,81.27
2023-01-29T00:45:27.493Z,81.35
2023-01-29T00:48:01.784Z,81.80
2023-01-29T00:50:36.383Z,81.10
2023-01-29T00:53:11.880Z,81.23
2023-01-29T00:55:46.511Z,81.10
2023-01-29T00:58:22.697Z,81.31
2023-01-29T01:00:57.307Z,81.87
2023-01-29T01:03:35.323Z,81.55
2023-01-29T01:06:12.000Z,81.48
2023-01-29T01:09:04.872Z,81.64
2023-01-29T01:11:39.376Z,81.26
2023-01-29T01:14:13.655Z,81.11
2023-01-29T01:16:50.404Z,81.74
2023-01-29T01:19:25.185Z,81.15
2023-01-29T01:21:59.722Z,81.26
2023-01-29T01:24:35.353Z,81.00
2023-01-29T01:27:09.887Z,81.40
2023-01-29T01:29:44.408Z,81.63
2023-01-29T01:32:19.080Z,80.46
2023-01-29T01:34:54.118Z,80.88
2023-01-29T01:37:28.593Z,81.31
2023-01-29T01:40:05.930Z,81.48
2023-01-29T01:42:41.065Z,80.02
2023-01-29T01:45:22.373Z,81.65
2023-01-29T01:48:02.611Z,80.29
2023-01-29T01:50:42.827Z,81.01
2023-01-29T01:53:22.391Z,81.11
2023-01-29T01:56:02.233Z,80.43
2023-01-29T01:58:41.475Z,81.09
2023-01-29T02:01:15.888Z,81.22
2023-01-29T02:04:14.821Z,81.00
2023-01-29T02:07:07.144Z,80.92
2023-01-29T02:09:47.441Z,80.80
2023-01-29T02:12:25.285Z,80.90
2023-01-29T02:14:59.433Z,80.86
2023-01-29T02:17:34.581Z,81.83
2023-01-29T02:20:16.010Z,81.49
2023-01-29T02:23:18.175Z,81.66
2023-01-29T02:26:10.904Z,80.07
2023-01-29T02:28:52.851Z,80.11
2023-01-29T02:31:36.233Z,80.43
2023-01-29T02:34:18.719Z,80.51
2023-01-29T02:37:02.030Z,80.60
2023-01-29T02:39:51.863Z,80.15
2023-01-29T02:42:32.185Z,80.92
2023-01-29T02:45:14.961Z,80.44
2023-01-29T02:47:57.622Z,80.80
2023-01-29T02:50:38.834Z,80.42
2023-01-29T02:53:17.129Z,80.86
2023-01-29T02:55:57.606Z,80.99
2023-01-29T02:58:36.750Z,80.58
2023-01-29T03:01:18.212Z,80.64
2023-01-29T03:03:54.677Z,80.29
2023-01-29T03:06:34.065Z,80.41
2023-01-29T03:09:15.045Z,80.28
2023-01-29T03:11:54.176Z,80.81
2023-01-29T03:15:00.050Z,80.44
2023-01-29T03:17:41.336Z,80.52
2023-01-29T03:20:19.905Z,80.75
2023-01-29T03:23:01.470Z,80.08
2023-01-29T03:25:55.290Z,79.82
2023-01-29T03:28:49.305Z,80.00
2023-01-29T03:31:42.146Z,80.14
2023-01-29T03:34:24.931Z,79.64
2023-01-29T03:37:02.885Z,79.77
2023-01-29T03:39:38.132Z,80.37
2023-01-29T03:42:20.425Z,80.34
2023-01-29T03:45:01.973Z,79.94
2023-01-29T03:47:45.101Z,79.72
2023-01-29T03:50:35.814Z,80.30
2023-01-29T03:53:18.349Z,80.23
2023-01-29T03:55:59.806Z,80.18
2023-01-29T03:58:40.460Z,80.07
2023-01-29T04:01:20.725Z,81.47
2023-01-29T04:04:03.040Z,80.96
2023-01-29T04:06:41.151Z,80.88
2023-01-29T04:09:22.347Z,81.36
2023-01-29T04:12:04.833Z,80.78
2023-01-29T04:14:40.796Z,81.02
2023-01-29T04:17:20.025Z,81.02
2023-01-29T04:19:55.750Z,81.50
2023-01-29T04:22:34.720Z,82.03
2023-01-29T04:25:15.862Z,82.41
2023-01-29T04:27:58.670Z,82.61
2023-01-29T04:30:44.077Z,82.59
2023-01-29T04:33:32.688Z,83.06
2023-01-29T04:36:23.321Z,82.68
2023-01-29T04:39:11.003Z,82.62
2023-01-29T04:41:54.474Z,82.67
2023-01-29T04:44:35.831Z,82.79
2023-01-29T04:47:20.417Z,83.07
2023-01-29T04:50:03.340Z,83.17
2023-01-29T04:52:49.361Z,83.42
2023-01-29T04:55:34.108Z,83.52
2023-01-29T04:58:14.228Z,83.07
2023-01-29T05:00:51.692Z,83.43
2023-01-29T05:03:28.628Z,83.14
2023-01-29T05:06:03.870Z,83.03
2023-01-29T05:08:40.353Z,83.29
2023-01-29T05:11:19.346Z,83.26
2023-01-29T05:13:54.608Z,83.86
2023-01-29T05:16:41.943Z,83.01
2023-01-29T05:19:18.531Z,82.97
2023-01-29T05:21:52.926Z,83.39
2023-01-29T05:24:28.283Z,83.28
2023-01-29T05:27:22.315Z,83.74
2023-01-29T05:29:58.020Z,83.92
2023-01-29T05:32:32.203Z,83.57
2023-01-29T05:35:07.673Z,83.52
2023-01-29T05:37:42.453Z,83.87
2023-01-29T05:40:37.719Z,84.36
2023-01-29T05:43:18.209Z,83.28
2023-01-29T05:45:56.803Z,83.16
2023-01-29T05:48:32.670Z,83.61
2023-01-29T05:51:07.399Z,83.49
2023-01-29T05:53:41.604Z,83.56
2023-01-29T05:56:16.123Z,83.07
2023-01-29T05:58:51.735Z,83.13
2023-01-29T06:01:27.463Z,83.26
2023-01-29T06:04:01.984Z,83.05
2023-01-29T06:06:36.309Z,100.00
2023-01-29T06:09:12.045Z,100.00
2023-01-29T06:11:46.363Z,96.37
2023-01-29T06:14:22.362Z,89.37
2023-01-29T06:16:56.633Z,84.49
2023-01-29T06:19:31.327Z,83.31
2023-01-29T06:22:05.896Z,83.72
2023-01-29T06:24:40.418Z,83.86
2023-01-29T06:27:14.745Z,85.13
2023-01-29T06:29:50.841Z,83.89
2023-01-29T06:32:25.239Z,83.80
2023-01-29T06:34:59.788Z,83.14
2023-01-29T06:37:34.050Z,84.22
2023-01-29T06:40:10.198Z,83.18
2023-01-29T06:42:46.164Z,83.97
2023-01-29T06:45:22.241Z,83.98
2023-01-29T06:47:59.926Z,83.33
2023-01-29T06:50:35.955Z,83.11
2023-01-29T06:53:10.579Z,82.45
2023-01-29T06:55:45.715Z,83.52
2023-01-29T06:58:20.422Z,83.14
2023-01-29T07:02:55.393Z,83.32
2023-01-29T07:05:30.335Z,82.30
2023-01-29T07:08:05.226Z,82.81
2023-01-29T07:10:39.833Z,82.71
2023-01-29T07:13:14.128Z,81.86
2023-01-29T07:15:48.800Z,83.04
2023-01-29T07:18:24.698Z,81.92
2023-01-29T07:21:00.005Z,100.00
2023-01-29T07:23:34.632Z,100.00
2023-01-29T07:26:09.465Z,91.52
2023-01-29T07:28:43.758Z,87.59
2023-01-29T07:31:18.980Z,100.00
2023-01-29T07:33:55.294Z,100.00
2023-01-29T07:36:29.928Z,89.48
2023-01-29T07:39:04.341Z,81.00
2023-01-29T07:41:40.601Z,80.75
2023-01-29T07:44:21.905Z,79.57
2023-01-29T07:46:56.372Z,81.39
2023-01-29T07:49:32.033Z,81.37
2023-01-29T07:52:07.061Z,80.81
2023-01-29T07:54:41.292Z,78.44
2023-01-29T07:57:15.924Z,79.26
2023-01-29T07:59:50.677Z,78.37
2023-01-29T08:02:26.295Z,77.91
2023-01-29T08:05:02.253Z,78.14
2023-01-29T08:07:36.456Z,77.42
2023-01-29T08:10:12.599Z,77.75
2023-01-29T08:12:55.695Z,77.61
2023-01-29T08:15:30.987Z,77.77
2023-01-29T08:18:05.701Z,77.63
2023-01-29T08:20:41.916Z,76.80
2023-01-29T08:23:17.346Z,76.49
2023-01-29T08:25:51.877Z,75.69
2023-01-29T08:28:26.520Z,75.62
2023-01-29T08:31:01.141Z,75.80
2023-01-29T08:33:39.440Z,76.25
2023-01-29T08:36:15.900Z,76.08
2023-01-29T08:38:50.233Z,75.93
2023-01-29T08:41:24.994Z,76.16
2023-01-29T08:44:00.726Z,76.27
2023-01-29T08:46:35.318Z,76.62
2023-01-29T08:49:10.651Z,75.98
2023-01-29T08:51:46.698Z,76.61
2023-01-29T08:54:20.893Z,82.90
2023-01-29T08:56:56.464Z,100.00
2023-01-29T08:59:31.338Z,75.08
2023-01-29T09:02:05.926Z,75.05
2023-01-29T09:04:40.300Z,76.69
2023-01-29T09:07:16.343Z,75.41
2023-01-29T09:09:50.794Z,75.32
2023-01-29T09:12:25.731Z,74.57
2023-01-29T09:15:00.037Z,74.64
2023-01-29T09:17:34.664Z,75.14
2023-01-29T09:20:11.073Z,75.33
2023-01-29T09:22:48.045Z,73.61
2023-01-29T09:25:24.795Z,74.66
2023-01-29T09:27:59.433Z,74.00
2023-01-29T09:30:34.836Z,73.55
2023-01-29T09:33:09.579Z,74.14
2023-01-29T09:35:45.824Z,73.77
2023-01-29T09:38:22.077Z,74.39
2023-01-29T09:41:05.438Z,74.46
2023-01-29T09:43:47.195Z,74.82
2023-01-29T09:46:24.911Z,73.68
2023-01-29T09:49:05.297Z,73.42
2023-01-29T09:51:43.005Z,73.42
2023-01-29T09:54:25.858Z,73.17
2023-01-29T09:57:00.372Z,73.47
2023-01-29T09:59:35.054Z,73.45
2023-01-29T10:02:20.478Z,73.14
2023-01-29T10:05:27.833Z,73.12
2023-01-29T10:08:28.545Z,72.52
2023-01-29T10:11:13.942Z,72.90
2023-01-29T10:13:59.756Z,72.82
2023-01-29T10:16:45.913Z,72.80
2023-01-29T10:19:45.272Z,72.70
2023-01-29T10:22:50.809Z,73.45
2023-01-29T10:25:25.597Z,73.06
2023-01-29T10:28:02.883Z,71.73
2023-01-29T10:30:41.805Z,71.05
2023-01-29T10:33:23.380Z,71.26
2023-01-29T10:36:04.152Z,71.69
2023-01-29T10:38:45.558Z,71.58
2023-01-29T10:41:30.088Z,68.05
2023-01-29T10:44:18.308Z,68.59
2023-01-29T10:47:09.129Z,70.28
2023-01-29T10:50:02.524Z,68.98
2023-01-29T10:52:50.799Z,69.02
2023-01-29T10:55:38.619Z,69.97
2023-01-29T10:58:25.670Z,68.62
2023-01-29T11:01:02.297Z,68.09
2023-01-29T11:03:36.656Z,67.83
2023-01-29T11:06:17.819Z,68.84
2023-01-29T11:08:57.511Z,69.25
2023-01-29T11:11:37.614Z,68.38
2023-01-29T11:14:16.887Z,67.42
2023-01-29T11:16:53.052Z,68.16
2023-01-29T11:19:39.642Z,68.20
2023-01-29T11:22:16.761Z,67.44
2023-01-29T11:25:10.381Z,68.08
2023-01-29T11:27:47.688Z,68.15
2023-01-29T11:30:25.787Z,67.46
2023-01-29T11:33:19.598Z,66.73
2023-01-29T11:35:53.867Z,67.65
2023-01-29T11:38:30.420Z,66.92
2023-01-29T11:41:08.810Z,67.10
2023-01-29T11:43:43.401Z,67.31
2023-01-29T11:46:17.860Z,87.08
2023-01-29T11:48:59.392Z,76.84
2023-01-29T11:51:42.730Z,67.30
2023-01-29T11:54:20.876Z,66.47
2023-01-29T11:56:55.327Z,66.95
2023-01-29T11:59:44.283Z,68.30
2023-01-29T12:02:26.694Z,67.29
2023-01-29T12:05:07.586Z,67.04
2023-01-29T12:07:44.255Z,66.83
2023-01-29T12:10:34.319Z,67.52
2023-01-29T12:13:26.772Z,67.06
2023-01-29T12:16:17.640Z,66.01
2023-01-29T12:18:56.371Z,65.75
2023-01-29T12:21:37.915Z,67.45
2023-01-29T12:24:26.001Z,66.90
2023-01-29T12:27:09.239Z,66.78
2023-01-29T12:29:51.147Z,67.34
2023-01-29T12:32:37.260Z,91.35
2023-01-29T12:35:20.400Z,66.14
2023-01-29T12:38:03.664Z,65.95
2023-01-29T12:40:43.402Z,66.03
2023-01-29T12:43:20.189Z,66.80
2023-01-29T12:45:58.415Z,67.39
2023-01-29T12:48:35.638Z,67.56
2023-01-29T12:51:13.326Z,67.28
2023-01-29T12:53:54.787Z,67.52
2023-01-29T12:56:37.056Z,66.83
2023-01-29T12:59:19.399Z,85.58
2023-01-29T13:01:57.978Z,65.34
2023-01-29T13:04:40.361Z,67.43
2023-01-29T13:07:19.734Z,66.64
2023-01-29T13:10:03.143Z,67.60
2023-01-29T13:12:38.575Z,66.65
2023-01-29T13:15:24.060Z,67.20
2023-01-29T13:18:07.146Z,66.99
2023-01-29T13:20:42.541Z,67.80
2023-01-29T13:23:22.176Z,67.83
2023-01-29T13:25:59.018Z,67.40
2023-01-29T13:28:34.970Z,67.98
2023-01-29T13:31:15.476Z,66.78
2023-01-29T13:33:55.340Z,68.10
2023-01-29T13:36:32.052Z,67.11
2023-01-29T13:39:09.065Z,66.63
2023-01-29T13:41:45.777Z,67.06
2023-01-29T13:44:24.754Z,64.62
2023-01-29T13:47:02.141Z,64.02
2023-01-29T13:49:40.437Z,64.57
2023-01-29T13:52:30.585Z,64.97
2023-01-29T13:55:08.415Z,63.93
2023-01-29T13:57:56.377Z,63.13
2023-01-29T14:01:01.738Z,64.86
2023-01-29T14:04:04.969Z,64.09
2023-01-29T14:06:51.081Z,65.44
2023-01-29T14:09:57.505Z,66.56
2023-01-29T14:12:41.939Z,67.40
2023-01-29T14:15:26.950Z,83.25
2023-01-29T14:18:27.133Z,74.22
2023-01-29T14:21:04.942Z,67.33
2023-01-29T14:23:46.234Z,67.55
2023-01-29T14:26:25.543Z,67.29
2023-01-29T14:29:08.045Z,66.56
2023-01-29T14:31:47.892Z,68.16
2023-01-29T14:34:27.815Z,68.28
2023-01-29T14:37:05.188Z,67.91
2023-01-29T14:39:44.350Z,67.25
2023-01-29T14:42:25.071Z,68.65
2023-01-29T14:45:02.115Z,68.31
2023-01-29T14:48:22.645Z,68.79
2023-01-29T14:51:09.672Z,67.78
2023-01-29T14:53:59.774Z,68.08
2023-01-29T14:56:37.428Z,69.00
2023-01-29T14:59:20.833Z,68.69
2023-01-29T15:03:01.993Z,68.18
2023-01-29T15:05:39.136Z,68.18
2023-01-29T15:08:23.875Z,68.66
2023-01-29T15:11:18.264Z,68.89
2023-01-29T15:13:58.740Z,68.53
2023-01-29T15:16:43.622Z,68.54
2023-01-29T15:19:24.418Z,70.47
2023-01-29T15:22:11.785Z,68.37
2023-01-29T15:24:47.422Z,69.80
2023-01-29T15:27:22.228Z,69.23
2023-01-29T15:30:00.329Z,68.64
2023-01-29T15:32:38.642Z,71.32
2023-01-29T15:35:28.199Z,68.85
2023-01-29T15:38:05.635Z,69.18
2023-01-29T15:40:40.475Z,70.57
2023-01-29T15:43:22.909Z,69.32
2023-01-29T15:45:59.149Z,70.62
2023-01-29T15:48:37.898Z,70.19
2023-01-29T15:51:17.436Z,70.70
2023-01-29T15:53:55.494Z,69.15
2023-01-29T15:56:34.422Z,70.95
2023-01-29T15:59:16.340Z,72.18
2023-01-29T16:01:50.564Z,71.18
2023-01-29T16:04:29.142Z,69.70
2023-01-29T16:07:04.919Z,100.00
2023-01-29T16:09:39.756Z,79.87
2023-01-29T16:12:14.778Z,72.44
2023-01-29T16:14:51.371Z,72.21
2023-01-29T16:17:29.058Z,72.42
2023-01-29T16:20:06.979Z,73.42
2023-01-29T16:22:43.277Z,73.30
2023-01-29T16:25:18.306Z,73.54
2023-01-29T16:27:53.511Z,73.48
2023-01-29T16:30:29.848Z,73.17
2023-01-29T16:33:06.464Z,73.14
2023-01-29T16:35:41.708Z,73.19
2023-01-29T16:38:28.523Z,72.41
2023-01-29T16:41:09.767Z,73.04
2023-01-29T16:43:52.327Z,73.02
2023-01-29T16:46:34.201Z,71.50
2023-01-29T16:49:38.362Z,71.94
2023-01-29T16:52:19.733Z,72.40
2023-01-29T16:55:00.841Z,72.05
2023-01-29T16:57:35.703Z,71.60
2023-01-29T17:00:21.235Z,71.75
2023-01-29T17:03:00.738Z,72.64
2023-01-29T17:05:38.265Z,72.09
2023-01-29T17:08:21.830Z,73.33
2023-01-29T17:10:58.292Z,72.84
2023-01-29T17:13:39.866Z,71.42
2023-01-29T17:16:23.379Z,71.79
2023-01-29T17:18:59.093Z,72.27
2023-01-29T17:21:33.575Z,72.52
2023-01-29T17:24:09.014Z,72.98
2023-01-29T17:26:45.390Z,73.29
2023-01-29T17:29:24.698Z,74.09
2023-01-29T17:32:00.182Z,74.14
2023-01-29T17:34:35.269Z,74.50
2023-01-29T17:37:14.540Z,73.82
2023-01-29T17:39:52.746Z,74.11
2023-01-29T17:42:29.049Z,73.00
2023-01-29T17:45:03.900Z,72.04
2023-01-29T17:47:38.377Z,71.98
2023-01-29T17:50:23.076Z,71.61
2023-01-29T17:52:59.612Z,71.87
2023-01-29T17:55:34.466Z,71.65
2023-01-29T17:58:17.391Z,71.45
2023-01-29T18:00:56.135Z,71.68
2023-01-29T18:03:31.454Z,71.96
2023-01-29T18:06:08.990Z,72.28
2023-01-29T18:08:43.536Z,72.62
2023-01-29T18:11:18.127Z,72.57
2023-01-29T18:13:54.346Z,73.21
2023-01-29T18:16:31.308Z,73.01
2023-01-29T18:19:14.855Z,73.18
2023-01-29T18:21:49.423Z,72.90
2023-01-29T18:24:26.590Z,73.23
2023-01-29T18:27:01.215Z,72.90
2023-01-29T18:29:37.636Z,73.08
2023-01-29T18:32:12.911Z,100.00
2023-01-29T18:34:47.667Z,100.00
2023-01-29T18:37:22.150Z,100.00
2023-01-29T18:39:57.219Z,100.00
2023-01-29T18:42:33.365Z,83.60
2023-01-29T18:45:10.595Z,77.20
2023-01-29T18:47:45.625Z,73.94
2023-01-29T18:50:23.504Z,73.26
2023-01-29T18:52:58.151Z,72.86
2023-01-29T18:55:34.070Z,73.08
2023-01-29T18:58:28.889Z,74.05
2023-01-29T19:01:09.158Z,73.94
2023-01-29T19:03:44.134Z,73.59
2023-01-29T19:06:20.152Z,73.90
2023-01-29T19:08:57.729Z,74.49
2023-01-29T19:11:35.367Z,73.97
2023-01-29T19:14:09.795Z,75.55
2023-01-29T19:16:46.038Z,76.19
2023-01-29T19:19:20.596Z,76.14
2023-01-29T19:21:55.957Z,75.19
2023-01-29T19:24:36.289Z,74.75
2023-01-29T19:27:11.759Z,75.44
2023-01-29T19:29:46.401Z,75.21
2023-01-29T19:32:22.729Z,75.24
2023-01-29T19:34:57.901Z,75.49
2023-01-29T19:37:32.793Z,75.57
2023-01-29T19:40:08.416Z,75.57
2023-01-29T19:42:43.973Z,75.78
2023-01-29T19:45:35.016Z,100.00
2023-01-29T19:48:21.661Z,85.37
2023-01-29T19:50:56.981Z,76.12
2023-01-29T19:53:33.019Z,75.64
2023-01-29T19:56:10.083Z,76.75
2023-01-29T19:58:45.186Z,77.65
2023-01-29T20:01:22.247Z,77.60
2023-01-29T20:03:58.803Z,77.15
2023-01-29T20:06:33.331Z,77.17
2023-01-29T20:09:08.709Z,77.68
2023-01-29T20:11:43.417Z,77.92
2023-01-29T20:14:18.259Z,77.99
2023-01-29T20:16:52.936Z,77.47
2023-01-29T20:19:29.204Z,78.43
2023-01-29T20:22:04.603Z,78.32
2023-01-29T20:24:42.761Z,77.89
2023-01-29T20:27:17.061Z,77.54
2023-01-29T20:29:52.740Z,78.49
2023-01-29T20:32:27.333Z,79.01
2023-01-29T20:35:03.828Z,77.77
2023-01-29T20:37:38.429Z,77.72
2023-01-29T20:40:15.834Z,77.28
2023-01-29T20:42:50.773Z,77.03
2023-01-29T20:45:25.649Z,77.49
2023-01-29T20:48:00.045Z,77.07
2023-01-29T20:50:37.122Z,77.29
2023-01-29T20:53:12.642Z,77.38
2023-01-29T20:55:48.650Z,100.00
2023-01-29T20:58:23.508Z,100.00
2023-01-29T21:00:58.486Z,78.98
2023-01-29T21:03:32.928Z,76.52
2023-01-29T21:06:10.227Z,76.35
2023-01-29T21:08:44.898Z,76.16
2023-01-29T21:11:21.021Z,99.76
2023-01-29T21:13:57.839Z,90.79
2023-01-29T21:16:32.759Z,76.35
2023-01-29T21:19:07.534Z,76.80
2023-01-29T21:21:43.849Z,76.71
2023-01-29T21:24:19.045Z,77.44
2023-01-29T21:26:53.960Z,77.94
2023-01-29T21:29:28.193Z,78.21
2023-01-29T21:32:04.499Z,79.17
2023-01-29T21:34:39.180Z,78.21
2023-01-29T21:37:15.460Z,77.98
2023-01-29T21:39:49.701Z,77.76
2023-01-29T21:42:41.778Z,78.24
2023-01-29T21:45:16.593Z,78.33
2023-01-29T21:47:51.195Z,78.25
2023-01-29T21:50:25.456Z,78.70
2023-01-29T21:53:01.867Z,78.86
2023-01-29T21:55:36.048Z,79.36
2023-01-29T21:58:11.853Z,78.82
2023-01-29T22:00:48.937Z,78.15
2023-01-29T22:03:23.693Z,77.97
2023-01-29T22:05:57.992Z,78.42
2023-01-29T22:08:34.569Z,78.56
2023-01-29T22:11:09.124Z,78.97
2023-01-29T22:13:43.749Z,78.98
2023-01-29T22:16:18.007Z,78.92
2023-01-29T22:18:52.521Z,78.86
2023-01-29T22:21:27.002Z,78.51
2023-01-29T22:24:02.961Z,78.31
2023-01-29T22:26:37.368Z,78.76
2023-01-29T22:29:13.114Z,78.85
2023-01-29T22:31:48.037Z,79.00
2023-01-29T22:34:22.646Z,78.87
2023-01-29T22:36:56.894Z,79.37
2023-01-29T22:39:32.797Z,79.46
2023-01-29T22:42:07.196Z,78.89
2023-01-29T22:44:42.830Z,79.13
2023-01-29T22:47:17.199Z,79.45
2023-01-29T22:49:52.553Z,79.58
2023-01-29T22:52:28.048Z,79.39
2023-01-29T22:55:03.927Z,79.63
2023-01-29T22:57:38.702Z,79.37
